CheckWX is a tool to help pilots better visualize weather data.  It is not intended as a substitute for an official pre-flight weather briefing.

17:56:03 UTC

KEGI TAF
Duke Field Airport
Crestview, Florida, USA
TAF KEGI 171700Z 1717/1823 01009KT 9999 BKN250 QNH2998INS BECMG 1806/1807 04010KT 9999 FEW080 SCT120 BKN250 QNH2993INS BECMG 1815/1816 06012G18KT 9999 SCT050 BKN100 BKN200 QNH2991INS BECMG 1819/1820 07015G25KT 8000 -SHRA BKN030 BKN080 BKN180 QNH2989INS TX22/1720Z TN12/1813Z

Oct-17@
17:00 UTC

Oct-17 @ 17:00 UTC

Oct-18@
06:00 UTC

Oct-18 @ 06:00 UTC

TAF KEGI 171700Z 1717/1823 01009KT 9999 BKN250 QNH2998INS
Wind
  • 010° at 9 KTS
Cloud Levels
  • Broken at 25,000' AGL

Oct-18@
06:00 UTC

Oct-18 @ 06:00 UTC

Oct-18@
15:00 UTC

Oct-18 @ 15:00 UTC

BECMG 1806/1807 04010KT 9999 FEW080 SCT120 BKN250 QNH2993INS

Becoming

Becoming Conditions expected by Fri, Oct 18, 2019 @ 07:00 UTC

Wind
  • 040° at 10 KTS
Cloud Levels
  • Few at 8,000' AGL
  • Scattered at 12,000' AGL
  • Broken at 25,000' AGL

Oct-18@
15:00 UTC

Oct-18 @ 15:00 UTC

Oct-18@
19:00 UTC

Oct-18 @ 19:00 UTC

BECMG 1815/1816 06012G18KT 9999 SCT050 BKN100 BKN200 QNH2991INS

Becoming

Becoming Conditions expected by Fri, Oct 18, 2019 @ 16:00 UTC

Wind
  • 060° at 12 KTS
  • {Gusting to 18 KTS
Cloud Levels
  • Scattered at 5,000' AGL
  • Broken at 10,000' AGL
  • Broken at 20,000' AGL

Oct-18@
19:00 UTC

Oct-18 @ 19:00 UTC

Oct-18@
23:00 UTC

Oct-18 @ 23:00 UTC

BECMG 1819/1820 07015G25KT 8000 -SHRA BKN030 BKN080 BKN180 QNH2989INS TX22/1720Z TN12/1813Z

Becoming

Becoming Conditions expected by Fri, Oct 18, 2019 @ 20:00 UTC

Wind
  • 070° at 15 KTS
  • {Gusting to 25 KTS
Conditions
Light Rain
Cloud Levels
  • Broken at 3,000' AGL
  • Broken at 8,000' AGL
  • Broken at 18,000' AGL